Beavercreek, Ohio
Current Conditions -  °F | °C
As of 6:58 AM on Friday 31 Oct 2014 (Local Time) from KFFO Reporting Station
Overcast Overcast  
Wind Chill: 38°   Ceiling: 4900
Heat Index: 41°   Visibility: 10mi
Dew Point: 38°   Wind: 5mph
Humidity: 87%   Direction: 160°SSE
Pressure: 29.97"   Gusts: NA
Location:  39.73°N, 84.06°W
Report Text: KFFO 311058Z AUTO 16004KT 10SM OVC049 05/03 A2997 RMK AO2 SLP155 T00510031
Loading
Personal Weather Stations






























Interactive Weather Map
Tropical Storm Tracking
New forecast layout! Learn more

10-Day Weather Forecast

Advertisements
Track Severe Weather on mobile